Time;durP1;ratioP1;P1;durP2;ratioP2;P2;SDS_P1;SDS_P2;PMS_P1;PMS_P2;Temp;Humidity;BMP_temperature;BMP_pressure;BME280_temperature;BME280_humidity;BME280_pressure;Samples;Min_cycle;Max_cycle;Signal;HPM_P1;HPM_P2
2022/03/04 00:01:47;;;;;;;8.45;2.25;;;;;;;-1.00;100.00;102530.63;4880814;29;20124;-79
2022/03/04 00:04:13;;;;;;;5.78;1.88;;;;;;;-1.02;100.00;102542.22;4885822;29;20053;-79
2022/03/04 00:06:39;;;;;;;5.75;2.00;;;;;;;-1.06;100.00;102538.91;4885864;29;20079;-79
2022/03/04 00:09:04;;;;;;;3.58;1.80;;;;;;;-1.11;100.00;102540.91;4887318;29;20033;-79
2022/03/04 00:11:30;;;;;;;8.27;2.38;;;;;;;-1.13;100.00;102541.91;4901382;29;20115;-79
2022/03/04 00:13:55;;;;;;;6.60;1.95;;;;;;;-1.26;100.00;102528.50;4898629;29;20040;-79
2022/03/04 00:16:21;;;;;;;6.13;2.05;;;;;;;-1.29;100.00;102526.00;4888836;29;20033;-80
2022/03/04 00:19:06;;;;;;;6.38;1.75;;;;;;;-1.21;100.00;102542.34;4880551;29;20037;-79
2022/03/04 00:21:43;;;;;;;5.00;1.70;;;;;;;-1.38;100.00;102516.81;4896533;29;20447;-79
2022/03/04 00:24:10;;;;;;;4.53;1.35;;;;;;;-1.45;100.00;102513.63;4901612;29;20056;-78
2022/03/04 00:26:36;;;;;;;4.38;1.55;;;;;;;-1.30;100.00;102541.00;4894326;29;20093;-79
2022/03/04 00:29:02;;;;;;;5.97;1.33;;;;;;;-1.52;100.00;102512.25;4882797;29;20029;-79
2022/03/04 00:31:28;;;;;;;7.60;1.70;;;;;;;-1.30;100.00;102545.44;4881920;29;20533;-79
2022/03/04 00:33:53;;;;;;;7.28;1.90;;;;;;;-1.31;100.00;102543.75;4891467;29;20029;-79
2022/03/04 00:36:22;;;;;;;6.05;1.48;;;;;;;-1.33;100.00;102543.81;4872285;29;20052;-79
2022/03/04 00:38:52;;;;;;;4.15;1.40;;;;;;;-1.43;100.00;102527.59;4900522;29;20095;-79
2022/03/04 00:41:18;;;;;;;3.05;1.23;;;;;;;-1.44;100.00;102527.69;4898016;29;20052;-79
2022/03/04 00:43:44;;;;;;;3.50;1.13;;;;;;;-1.34;100.00;102551.81;4881948;29;20092;-78
2022/03/04 00:46:11;;;;;;;3.78;1.50;;;;;;;-1.38;100.00;102545.84;4881220;29;20128;-79
2022/03/04 00:48:37;;;;;;;6.95;2.10;;;;;;;-1.39;100.00;102540.63;4884446;29;20021;-79
2022/03/04 00:51:03;;;;;;;4.45;1.73;;;;;;;-1.30;100.00;102548.09;4882278;29;20029;-79
2022/03/04 00:53:30;;;;;;;3.75;1.42;;;;;;;-1.38;100.00;102545.00;4882872;29;20041;-79
2022/03/04 00:55:56;;;;;;;5.70;1.42;;;;;;;-1.24;100.00;102556.53;4883617;29;20025;-79
2022/03/04 00:58:23;;;;;;;3.60;1.38;;;;;;;-1.29;100.00;102541.84;4882799;29;20101;-79
2022/03/04 01:00:49;;;;;;;5.40;1.30;;;;;;;-1.45;100.00;102528.63;4885825;29;20932;-79
2022/03/04 01:03:14;;;;;;;4.32;1.35;;;;;;;-1.35;100.00;102544.84;4901524;29;20029;-78
2022/03/04 01:05:40;;;;;;;3.97;1.48;;;;;;;-1.38;100.00;102558.19;4898208;29;20687;-78
2022/03/04 01:08:05;;;;;;;5.22;1.27;;;;;;;-1.60;100.00;102537.31;4900244;29;20040;-78
2022/03/04 01:10:31;;;;;;;3.22;1.02;;;;;;;-1.46;100.00;102567.38;4904300;29;20115;-79
2022/03/04 01:12:57;;;;;;;2.88;1.00;;;;;;;-1.54;100.00;102560.75;4900448;29;20084;-79
2022/03/04 01:15:22;;;;;;;4.65;0.90;;;;;;;-1.62;100.00;102539.16;4899707;29;20052;-79
2022/03/04 01:17:48;;;;;;;3.25;1.20;;;;;;;-1.61;100.00;102554.94;4899325;29;20050;-78
2022/03/04 01:20:13;;;;;;;4.03;1.17;;;;;;;-1.64;100.00;102549.81;4898532;29;20107;-79
2022/03/04 01:22:39;;;;;;;3.65;1.02;;;;;;;-1.59;100.00;102563.63;4886208;29;20043;-78
2022/03/04 01:25:05;;;;;;;4.22;1.30;;;;;;;-1.63;100.00;102562.06;4882845;29;20033;-79
2022/03/04 01:27:30;;;;;;;3.38;1.00;;;;;;;-1.61;100.00;102560.22;4869711;29;20025;-79
2022/03/04 01:29:56;;;;;;;4.85;1.20;;;;;;;-1.67;100.00;102564.00;4888013;29;20079;-79
2022/03/04 01:32:21;;;;;;;3.00;0.90;;;;;;;-1.72;100.00;102552.00;4880289;29;20341;-79
2022/03/04 01:34:47;;;;;;;3.60;1.20;;;;;;;-1.64;100.00;102565.66;4868825;29;20045;-78
2022/03/04 01:37:12;;;;;;;4.25;1.10;;;;;;;-1.66;100.00;102559.56;4896879;29;20052;-79
2022/03/04 01:39:38;;;;;;;2.65;0.90;;;;;;;-1.70;100.00;102571.22;4865183;29;20060;-79
2022/03/04 01:42:03;;;;;;;4.35;1.00;;;;;;;-1.74;100.00;102561.75;4887834;29;20035;-79
2022/03/04 01:44:30;;;;;;;2.28;1.00;;;;;;;-1.66;100.00;102568.38;4899087;29;20112;-79
2022/03/04 01:46:56;;;;;;;5.15;1.02;;;;;;;-1.64;100.00;102565.66;4898181;29;20032;-79
2022/03/04 01:49:21;;;;;;;4.78;1.10;;;;;;;-1.65;100.00;102566.59;4886573;29;20025;-79
2022/03/04 01:51:46;;;;;;;5.00;1.20;;;;;;;-1.70;100.00;102566.78;4881737;29;20036;-79
2022/03/04 01:54:12;;;;;;;3.40;1.00;;;;;;;-1.72;100.00;102562.56;4882777;29;20036;-79
2022/03/04 01:56:38;;;;;;;5.15;1.05;;;;;;;-1.68;100.00;102569.38;4880413;29;20467;-79
2022/03/04 01:59:04;;;;;;;4.25;1.17;;;;;;;-1.72;100.00;102568.69;4880768;29;20025;-79
2022/03/04 02:01:30;;;;;;;3.65;1.00;;;;;;;-1.90;100.00;102551.94;4896678;29;20039;-79
2022/03/04 02:03:55;;;;;;;7.07;1.05;;;;;;;-1.78;100.00;102568.13;4899602;29;20021;-79
2022/03/04 02:06:21;;;;;;;3.83;0.90;;;;;;;-1.80;100.00;102559.41;4889282;29;20040;-79
2022/03/04 02:08:47;;;;;;;5.45;0.90;;;;;;;-1.86;100.00;102555.28;4900546;29;20043;-78
2022/03/04 02:11:12;;;;;;;4.88;0.90;;;;;;;-1.91;100.00;102552.03;4896992;29;20033;-79
2022/03/04 02:13:39;;;;;;;3.30;0.82;;;;;;;-1.88;100.00;102545.75;4891508;29;20032;-79
2022/03/04 02:16:18;;;;;;;3.85;1.00;;;;;;;-1.86;100.00;102557.06;4869055;29;20032;-79
2022/03/04 02:18:44;;;;;;;5.43;1.52;;;;;;;-1.88;100.00;102556.31;4888954;29;20021;-79
2022/03/04 02:21:11;;;;;;;4.55;0.80;;;;;;;-1.88;100.00;102551.88;4898164;29;20367;-78
2022/03/04 02:23:36;;;;;;;5.28;1.15;;;;;;;-1.95;100.00;102540.78;4898895;29;20032;-79
2022/03/04 02:26:01;;;;;;;2.10;0.88;;;;;;;-1.94;100.00;102545.13;4882915;29;20047;-79
2022/03/04 02:28:27;;;;;;;4.20;1.20;;;;;;;-1.92;100.00;102545.91;4898893;29;20032;-78
2022/03/04 02:30:52;;;;;;;3.28;0.98;;;;;;;-1.93;100.00;102552.09;4898779;29;20041;-79
2022/03/04 02:33:18;;;;;;;4.25;1.20;;;;;;;-1.96;100.00;102546.97;4899960;29;20082;-79
2022/03/04 02:35:44;;;;;;;5.78;0.93;;;;;;;-2.06;100.00;102536.94;4896611;29;20032;-78
2022/03/04 02:38:10;;;;;;;7.05;1.33;;;;;;;-2.05;100.00;102542.16;4881921;29;20113;-78
2022/03/04 02:40:36;;;;;;;2.00;0.98;;;;;;;-2.22;100.00;102505.19;4879287;29;20578;-78
2022/03/04 02:43:02;;;;;;;5.63;1.15;;;;;;;-1.98;100.00;102551.47;4880960;29;20525;-78
2022/03/04 02:45:27;;;;;;;3.38;1.00;;;;;;;-2.34;100.00;102484.72;4898131;29;20044;-79
2022/03/04 02:47:53;;;;;;;4.80;1.25;;;;;;;-2.02;100.00;102536.75;4886354;29;20455;-79
2022/03/04 02:50:19;;;;;;;4.65;1.10;;;;;;;-1.89;100.00;102558.06;4864148;29;20033;-78
2022/03/04 02:52:44;;;;;;;6.72;1.20;;;;;;;-1.83;100.00;102559.56;4889144;29;20518;-78
2022/03/04 02:55:11;;;;;;;4.57;0.98;;;;;;;-2.00;100.00;102523.47;4898259;29;20033;-78
2022/03/04 02:57:43;;;;;;;3.50;0.80;;;;;;;-1.73;100.00;102560.81;4897009;29;20028;-79
2022/03/04 03:00:09;;;;;;;4.65;1.13;;;;;;;-1.82;100.00;102545.44;4890529;29;20047;-79
2022/03/04 03:02:35;;;;;;;4.00;1.17;;;;;;;-1.72;100.00;102563.41;4897906;29;20063;-78
2022/03/04 03:05:02;;;;;;;4.32;1.15;;;;;;;-1.70;100.00;102558.03;4881612;29;20032;-78
2022/03/04 03:07:29;;;;;;;4.88;0.90;;;;;;;-1.73;100.00;102561.66;4898207;29;20041;-79
2022/03/04 03:09:54;;;;;;;3.78;0.90;;;;;;;-1.79;100.00;102550.56;4897808;29;20035;-78
2022/03/04 03:12:20;;;;;;;3.45;0.90;;;;;;;-1.77;100.00;102559.28;4886871;29;20033;-79
2022/03/04 03:14:45;;;;;;;3.65;1.02;;;;;;;-1.75;100.00;102558.28;4880733;29;20423;-79
2022/03/04 03:17:11;;;;;;;3.35;0.80;;;;;;;-1.80;100.00;102559.41;4880803;29;20371;-78
2022/03/04 03:19:36;;;;;;;3.63;1.10;;;;;;;-1.80;100.00;102562.91;4865845;29;20037;-78
2022/03/04 03:22:03;;;;;;;4.10;0.82;;;;;;;-1.90;100.00;102557.22;4895410;29;20074;-79
2022/03/04 03:24:29;;;;;;;2.40;0.90;;;;;;;-2.00;100.00;102548.06;4883602;29;20084;-79
2022/03/04 03:26:54;;;;;;;5.50;0.80;;;;;;;-1.97;100.00;102562.88;4887828;29;20543;-79
2022/03/04 03:29:19;;;;;;;3.95;0.90;;;;;;;-2.02;100.00;102552.56;4880235;29;20123;-78
2022/03/04 03:31:45;;;;;;;3.83;1.50;;;;;;;-1.97;100.00;102571.66;4878556;29;20058;-78
2022/03/04 03:34:10;;;;;;;3.33;1.00;;;;;;;-1.98;100.00;102564.69;4873546;29;20100;-79
2022/03/04 03:36:36;;;;;;;4.97;0.88;;;;;;;-2.18;100.00;102528.72;4880774;29;20033;-79
2022/03/04 03:39:01;;;;;;;2.70;0.88;;;;;;;-1.97;100.00;102558.47;4879672;29;20040;-78
2022/03/04 03:41:28;;;;;;;3.15;0.93;;;;;;;-1.94;100.00;102574.13;4881503;29;20182;-78
2022/03/04 03:43:53;;;;;;;4.85;0.90;;;;;;;-2.01;100.00;102556.06;4897279;29;20048;-78
2022/03/04 03:46:19;;;;;;;3.65;0.60;;;;;;;-1.90;100.00;102573.06;4883621;29;20076;-78
2022/03/04 03:48:45;;;;;;;5.50;1.17;;;;;;;-1.89;100.00;102571.25;4873904;29;20014;-78
2022/03/04 03:51:12;;;;;;;3.83;0.77;;;;;;;-1.90;100.00;102573.06;4898352;29;20065;-79
2022/03/04 03:53:38;;;;;;;4.35;0.90;;;;;;;-1.89;100.00;102576.53;4899586;29;20037;-79
2022/03/04 03:56:04;;;;;;;3.90;0.82;;;;;;;-1.93;100.00;102573.19;4899004;29;20482;-78
2022/03/04 03:58:29;;;;;;;2.85;0.80;;;;;;;-1.97;100.00;102579.56;4903318;29;20024;-78
2022/03/04 04:00:55;;;;;;;2.80;0.85;;;;;;;-2.19;100.00;102553.34;4902182;29;20498;-78
2022/03/04 04:03:20;;;;;;;5.15;1.20;;;;;;;-2.09;100.00;102577.50;4902354;29;20512;-78
2022/03/04 04:05:46;;;;;;;3.63;1.02;;;;;;;-2.17;100.00;102588.44;4901865;29;20123;-78
2022/03/04 04:08:11;;;;;;;2.60;0.65;;;;;;;-2.18;100.00;102584.09;4901475;29;20107;-78
2022/03/04 04:10:37;;;;;;;4.40;0.80;;;;;;;-2.57;100.00;102543.78;4900337;29;20127;-78
2022/03/04 04:13:03;;;;;;;2.25;0.70;;;;;;;-2.29;100.00;102582.88;4891787;29;20372;-78
2022/03/04 04:15:28;;;;;;;2.60;0.75;;;;;;;-2.37;100.00;102580.59;4883535;29;20029;-78
2022/03/04 04:17:55;;;;;;;1.95;0.70;;;;;;;-2.48;100.00;102578.47;4883015;29;20044;-78
2022/03/04 04:20:21;;;;;;;3.53;0.70;;;;;;;-2.50;100.00;102588.22;4884376;29;20068;-78
2022/03/04 04:22:46;;;;;;;2.08;0.73;;;;;;;-2.54;100.00;102589.31;4901597;29;20439;-79
2022/03/04 04:25:12;;;;;;;3.72;0.90;;;;;;;-2.72;100.00;102571.69;4901665;29;20123;-78
2022/03/04 04:27:37;;;;;;;9.25;1.17;;;;;;;-2.66;100.00;102588.06;4901366;29;20049;-78
2022/03/04 04:30:03;;;;;;;4.47;0.77;;;;;;;-2.72;100.00;102584.84;4895435;29;20031;-78
2022/03/04 04:32:28;;;;;;;3.28;1.13;;;;;;;-2.90;100.00;102561.06;4906436;29;20028;-79
2022/03/04 04:34:54;;;;;;;3.42;1.05;;;;;;;-2.86;100.00;102581.06;4904267;29;20427;-77
2022/03/04 04:37:19;;;;;;;3.90;0.88;;;;;;;-2.75;100.00;102590.25;4902480;29;20033;-79
2022/03/04 04:39:45;;;;;;;3.80;0.90;;;;;;;-2.84;100.00;102565.19;4906579;29;20471;-78
2022/03/04 04:42:10;;;;;;;3.85;0.82;;;;;;;-2.71;100.00;102591.84;4916752;29;20366;-79
2022/03/04 04:44:35;;;;;;;2.72;0.77;;;;;;;-2.81;100.00;102574.72;4904336;29;20028;-78
2022/03/04 04:47:01;;;;;;;3.47;0.85;;;;;;;-2.72;100.00;102587.50;4894774;29;20045;-79
2022/03/04 04:49:26;;;;;;;2.28;0.80;;;;;;;-2.68;100.00;102595.19;4884962;29;20029;-78
2022/03/04 04:51:52;;;;;;;5.05;0.85;;;;;;;-2.70;100.00;102589.13;4899085;29;20037;-79
2022/03/04 04:54:18;;;;;;;3.60;0.90;;;;;;;-2.68;100.00;102591.69;4899798;29;20033;-78
2022/03/04 04:56:43;;;;;;;4.03;0.70;;;;;;;-2.68;100.00;102586.41;4886234;29;20511;-78
2022/03/04 04:59:08;;;;;;;1.75;0.80;;;;;;;-3.12;100.00;102518.16;4870555;29;20029;-78
2022/03/04 05:01:34;;;;;;;4.13;0.80;;;;;;;-2.84;100.00;102575.75;4886551;29;20037;-78
2022/03/04 05:03:59;;;;;;;3.60;1.10;;;;;;;-2.74;100.00;102602.53;4881517;29;20586;-78
2022/03/04 05:06:25;;;;;;;4.13;1.10;;;;;;;-2.76;100.00;102596.47;4881939;29;20170;-78
2022/03/04 05:08:50;;;;;;;5.18;1.10;;;;;;;-2.81;100.00;102596.69;4882990;29;20073;-78
2022/03/04 05:11:15;;;;;;;3.53;0.80;;;;;;;-2.93;100.00;102589.31;4897938;29;20123;-78
2022/03/04 05:13:41;;;;;;;2.45;0.90;;;;;;;-2.89;100.00;102604.06;4900924;29;20460;-78
2022/03/04 05:16:06;;;;;;;4.97;0.85;;;;;;;-2.92;100.00;102604.19;4894795;29;20044;-78
2022/03/04 05:18:32;;;;;;;5.00;1.23;;;;;;;-3.12;100.00;102587.47;4894764;29;20109;-78
2022/03/04 05:20:58;;;;;;;2.78;1.00;;;;;;;-3.01;100.00;102613.38;4883649;29;20108;-78
2022/03/04 05:26:07;;;;;;;7.05;1.10;;;;;;;-3.21;100.00;102593.16;4882179;29;20147;-78
2022/03/04 05:28:33;;;;;;;2.95;0.98;;;;;;;-3.24;100.00;102589.81;4882642;29;20482;-78
2022/03/04 05:30:58;;;;;;;6.00;0.80;;;;;;;-3.31;100.00;102587.44;4899040;29;20040;-79
2022/03/04 05:33:23;;;;;;;4.97;1.38;;;;;;;-3.24;100.00;102600.34;4899939;29;20146;-78
2022/03/04 05:35:49;;;;;;;1.65;0.85;;;;;;;-3.30;100.00;102593.56;4897581;29;20363;-78
2022/03/04 05:38:14;;;;;;;4.45;1.05;;;;;;;-3.28;100.00;102607.47;4889539;29;20052;-79
2022/03/04 05:40:40;;;;;;;2.20;0.98;;;;;;;-3.28;100.00;102602.22;4879305;29;20071;-78
2022/03/04 05:43:05;;;;;;;3.85;0.90;;;;;;;-3.42;100.00;102588.78;4894761;29;20036;-79
2022/03/04 05:45:30;;;;;;;2.92;1.02;;;;;;;-3.35;100.00;102609.53;4896591;29;20032;-77
2022/03/04 05:47:57;;;;;;;2.33;0.90;;;;;;;-3.36;100.00;102614.88;4883888;29;20068;-78
2022/03/04 05:50:22;;;;;;;4.95;1.13;;;;;;;-3.37;100.00;102618.44;4893564;29;20028;-78
2022/03/04 05:52:48;;;;;;;3.97;1.40;;;;;;;-3.38;100.00;102625.47;4887913;29;20356;-78
2022/03/04 05:55:16;;;;;;;3.28;1.10;;;;;;;-3.44;100.00;102619.59;4887433;29;20025;-78
2022/03/04 05:57:41;;;;;;;3.28;1.02;;;;;;;-3.40;100.00;102626.44;4903016;29;20371;-78
2022/03/04 06:00:08;;;;;;;4.45;1.30;;;;;;;-3.51;100.00;102612.84;4887272;29;20090;-78
2022/03/04 06:02:33;;;;;;;4.35;1.10;;;;;;;-3.47;100.00;102623.22;4892745;29;20037;-79
2022/03/04 06:04:59;;;;;;;3.10;0.88;;;;;;;-3.51;100.00;102626.00;4873606;29;20036;-78
2022/03/04 06:07:25;;;;;;;2.22;1.10;;;;;;;-3.51;100.00;102634.75;4884689;29;20056;-78
2022/03/04 06:09:50;;;;;;;4.03;1.05;;;;;;;-3.54;100.00;102629.66;4874908;29;20032;-77
2022/03/04 06:12:15;;;;;;;4.60;1.05;;;;;;;-3.55;100.00;102646.34;4892249;29;20055;-78
2022/03/04 06:14:41;;;;;;;4.22;1.08;;;;;;;-3.53;100.00;102651.56;4888694;29;20371;-78
2022/03/04 06:17:06;;;;;;;5.47;1.50;;;;;;;-3.57;100.00;102646.41;4883902;29;20049;-78
2022/03/04 06:19:32;;;;;;;2.58;1.00;;;;;;;-3.47;100.00;102656.56;4873355;29;20108;-78
2022/03/04 06:21:57;;;;;;;4.47;1.20;;;;;;;-3.47;100.00;102656.56;4883485;29;20036;-77
2022/03/04 06:24:23;;;;;;;2.45;1.10;;;;;;;-3.36;100.00;102655.19;4892850;29;20036;-78
2022/03/04 06:26:49;;;;;;;3.92;1.75;;;;;;;-3.37;100.00;102645.59;4898826;29;20111;-77
2022/03/04 06:29:14;;;;;;;5.35;1.77;;;;;;;-3.17;100.00;102662.34;4894552;29;20171;-78
2022/03/04 06:31:40;;;;;;;3.25;1.30;;;;;;;-3.19;100.00;102654.50;4896609;29;20040;-78
2022/03/04 06:34:05;;;;;;;4.15;1.25;;;;;;;-3.09;100.00;102670.75;4868390;29;20036;-77
2022/03/04 06:36:31;;;;;;;4.70;1.58;;;;;;;-3.05;100.00;102672.34;4894543;29;20059;-77
2022/03/04 06:38:56;;;;;;;5.72;1.40;;;;;;;-3.00;100.00;102670.38;4895293;29;20099;-77
2022/03/04 06:41:21;;;;;;;8.35;1.58;;;;;;;-2.97;100.00;102667.59;4899162;29;20092;-77
2022/03/04 06:43:48;;;;;;;4.75;1.80;;;;;;;-3.05;100.00;102653.91;4897238;29;20040;-77
2022/03/04 06:46:15;;;;;;;3.95;1.42;;;;;;;-2.86;100.00;102677.69;4885926;29;20037;-77
2022/03/04 06:48:40;;;;;;;4.35;2.05;;;;;;;-2.90;100.00;102649.75;4889245;29;20104;-77
2022/03/04 06:51:06;;;;;;;6.53;2.00;;;;;;;-2.83;100.00;102659.09;4881943;29;20111;-77
2022/03/04 06:53:31;;;;;;;4.60;1.85;;;;;;;-2.67;100.00;102677.75;4895030;29;20079;-78
2022/03/04 06:55:57;;;;;;;5.32;1.88;;;;;;;-2.61;100.00;102673.06;4896704;29;20045;-77
2022/03/04 06:58:22;;;;;;;5.22;1.92;;;;;;;-2.64;100.00;102654.75;4888190;29;20115;-78
2022/03/04 07:00:48;;;;;;;5.63;2.10;;;;;;;-2.46;100.00;102682.03;4873361;29;20044;-77
2022/03/04 07:03:14;;;;;;;5.20;1.70;;;;;;;-2.41;100.00;102676.59;4885787;29;20454;-78
2022/03/04 07:05:40;;;;;;;4.63;1.40;;;;;;;-2.41;100.00;102659.00;4884947;29;20058;-77
2022/03/04 07:08:07;;;;;;;7.32;2.55;;;;;;;-2.16;100.00;102687.72;4886933;29;20054;-77
2022/03/04 07:10:34;;;;;;;6.72;1.77;;;;;;;-2.13;100.00;102671.75;4877845;29;20076;-77
2022/03/04 07:13:00;;;;;;;3.40;1.60;;;;;;;-2.01;100.00;102682.69;4891856;29;20032;-78
2022/03/04 07:15:25;;;;;;;3.50;1.60;;;;;;;-1.90;100.00;102691.78;4889659;29;20135;-77
2022/03/04 07:17:51;;;;;;;2.80;1.50;;;;;;;-1.82;100.00;102693.19;4883636;29;20128;-77
2022/03/04 07:20:16;;;;;;;4.53;1.50;;;;;;;-1.72;100.00;102689.22;4884880;29;20037;-77
2022/03/04 07:22:43;;;;;;;4.43;1.30;;;;;;;-1.62;100.00;102692.25;4889931;29;20455;-78
2022/03/04 07:25:11;;;;;;;6.40;1.25;;;;;;;-1.52;100.00;102686.47;4887403;29;20033;-77
2022/03/04 07:27:37;;;;;;;4.07;0.95;;;;;;;-1.47;100.00;102673.03;4888345;29;20039;-78
2022/03/04 07:30:05;;;;;;;3.60;1.40;;;;;;;-1.41;100.00;102672.75;4887972;29;20036;-77
2022/03/04 07:32:32;;;;;;;2.33;0.98;;;;;;;-1.21;100.00;102698.16;4886521;29;20029;-77
2022/03/04 07:34:57;;;;;;;3.95;1.17;;;;;;;-1.24;100.00;102671.91;4906537;29;20064;-77
2022/03/04 07:37:23;;;;;;;3.38;0.90;;;;;;;-0.91;100.00;102698.41;4887732;29;20432;-77
2022/03/04 07:39:48;;;;;;;4.93;1.00;;;;;;;-0.85;100.00;102700.75;4887216;29;20348;-77
2022/03/04 07:42:14;;;;;;;3.40;0.90;;;;;;;-0.69;100.00;102708.75;4896601;29;20043;-78
2022/03/04 07:44:39;;;;;;;2.75;1.08;;;;;;;-0.53;100.00;102714.94;4893205;29;20028;-78
2022/03/04 07:47:05;;;;;;;4.45;0.93;;;;;;;-0.41;100.00;102712.59;4897363;29;20455;-77
2022/03/04 07:49:30;;;;;;;4.32;1.00;;;;;;;-0.30;100.00;102710.22;4888136;29;20120;-77
2022/03/04 07:51:55;;;;;;;6.38;1.00;;;;;;;-0.25;100.00;102708.19;4890475;29;20124;-78
2022/03/04 07:54:21;;;;;;;2.75;0.90;;;;;;;-0.14;100.00;102699.66;4887827;29;20456;-77
2022/03/04 07:56:48;;;;;;;4.38;0.90;;;;;;;-0.03;100.00;102716.69;4888527;29;20464;-77
2022/03/04 07:59:13;;;;;;;2.45;0.85;;;;;;;0.04;100.00;102696.03;4891419;29;20033;-77
2022/03/04 08:01:38;;;;;;;2.88;0.80;;;;;;;0.18;100.00;102697.91;4887748;29;20028;-78
2022/03/04 08:04:05;;;;;;;4.78;1.55;;;;;;;0.36;100.00;102707.47;4893541;29;20051;-78
2022/03/04 08:06:31;;;;;;;6.38;1.17;;;;;;;0.38;100.00;102696.81;4895015;29;20494;-78
2022/03/04 08:08:56;;;;;;;6.07;0.80;;;;;;;0.41;100.00;102678.94;4892462;29;20028;-78
2022/03/04 08:11:22;;;;;;;4.82;0.95;;;;;;;0.57;100.00;102689.53;4894370;29;20071;-77
2022/03/04 08:13:47;;;;;;;3.97;0.75;;;;;;;0.71;100.00;102694.03;4898837;29;20383;-78
2022/03/04 08:16:12;;;;;;;4.47;0.80;;;;;;;0.63;100.00;102691.84;4877410;29;20041;-78
2022/03/04 08:18:38;;;;;;;3.80;0.95;;;;;;;0.87;100.00;102704.59;4894447;29;20059;-78
2022/03/04 08:21:04;;;;;;;2.78;1.00;;;;;;;1.05;100.00;102702.66;4896170;29;21070;-78
2022/03/04 08:23:30;;;;;;;4.82;0.90;;;;;;;1.22;100.00;102704.31;4885665;29;20438;-77
2022/03/04 08:25:57;;;;;;;4.03;0.80;;;;;;;1.30;100.00;102688.81;4897409;29;20055;-77
2022/03/04 08:28:23;;;;;;;4.15;0.82;;;;;;;1.45;100.00;102714.38;4877743;29;20424;-78
2022/03/04 08:30:48;;;;;;;4.22;1.75;;;;;;;1.49;100.00;102715.94;4889825;29;20048;-78
2022/03/04 08:33:14;;;;;;;4.50;0.95;;;;;;;1.61;100.00;102715.16;4890485;29;20033;-77
2022/03/04 08:35:39;;;;;;;4.40;0.90;;;;;;;1.68;100.00;102723.59;4881661;29;20033;-77
2022/03/04 08:38:05;;;;;;;5.35;0.90;;;;;;;1.65;100.00;102702.56;4878592;29;20129;-76
2022/03/04 08:40:30;;;;;;;2.95;0.90;;;;;;;1.71;100.00;102690.72;4864834;29;20045;-78
2022/03/04 08:42:56;;;;;;;2.92;1.10;;;;;;;1.83;100.00;102701.44;4873842;29;20040;-77
2022/03/04 08:45:21;;;;;;;4.10;0.93;;;;;;;1.96;100.00;102711.28;4887736;29;20029;-78
2022/03/04 08:47:47;;;;;;;4.93;1.00;;;;;;;2.03;100.00;102717.91;4891056;29;20040;-78
2022/03/04 08:50:14;;;;;;;6.22;0.95;;;;;;;2.05;100.00;102711.56;4886700;29;20036;-77
2022/03/04 08:52:40;;;;;;;6.50;0.90;;;;;;;2.26;100.00;102724.44;4893140;29;20044;-78
2022/03/04 08:55:17;;;;;;;2.50;1.10;;;;;;;2.38;100.00;102723.63;4892742;29;20363;-78
2022/03/04 08:57:46;;;;;;;2.70;0.90;;;;;;;2.43;100.00;102721.53;4887575;29;20044;-78
2022/03/04 09:00:13;;;;;;;5.07;1.05;;;;;;;2.51;100.00;102721.88;4887123;29;20044;-78
2022/03/04 09:02:38;;;;;;;5.95;0.90;;;;;;;2.48;100.00;102718.56;4904102;29;20111;-78
2022/03/04 09:05:05;;;;;;;3.30;0.98;;;;;;;2.61;100.00;102719.47;4884862;29;20368;-78
2022/03/04 09:07:30;;;;;;;6.72;0.95;;;;;;;2.67;100.00;102727.06;4873358;29;20100;-78
2022/03/04 09:09:56;;;;;;;5.47;0.93;;;;;;;2.71;100.00;102696.66;4892425;29;20029;-78
2022/03/04 09:12:21;;;;;;;5.20;0.80;;;;;;;2.95;100.00;102726.09;4884285;29;20025;-77
2022/03/04 09:14:47;;;;;;;2.72;0.80;;;;;;;3.02;100.00;102716.75;4887859;29;20043;-78
2022/03/04 09:17:12;;;;;;;2.60;0.85;;;;;;;3.07;100.00;102724.41;4885853;29;20028;-77
2022/03/04 09:19:37;;;;;;;2.25;0.68;;;;;;;3.14;100.00;102717.72;4891633;29;20496;-78
2022/03/04 09:22:03;;;;;;;4.63;0.90;;;;;;;3.39;100.00;102734.69;4888121;29;20048;-78
2022/03/04 09:24:29;;;;;;;3.00;0.70;;;;;;;3.30;100.00;102733.50;4893369;29;20043;-78
2022/03/04 09:26:55;;;;;;;3.90;0.90;;;;;;;3.31;100.00;102737.84;4894438;29;20025;-78
2022/03/04 09:29:20;;;;;;;2.10;0.50;;;;;;;3.32;100.00;102725.44;4897938;29;20033;-78
2022/03/04 09:31:46;;;;;;;3.50;0.73;;;;;;;3.48;100.00;102742.06;4888958;29;20522;-79
2022/03/04 09:34:11;;;;;;;2.78;0.63;;;;;;;3.64;100.00;102736.50;4885719;29;20417;-78
2022/03/04 09:36:37;;;;;;;3.67;0.65;;;;;;;3.73;100.00;102727.88;4891490;29;20717;-78
2022/03/04 09:39:03;;;;;;;2.72;0.90;;;;;;;3.60;100.00;102719.91;4880321;29;20535;-78
2022/03/04 09:41:28;;;;;;;2.42;0.55;;;;;;;3.68;100.00;102722.03;4882710;29;20047;-78
2022/03/04 09:43:55;;;;;;;5.90;0.95;;;;;;;3.57;100.00;102706.78;4896040;29;20028;-78
2022/03/04 09:46:21;;;;;;;8.27;0.80;;;;;;;3.93;100.00;102737.13;4896459;29;20032;-77
2022/03/04 09:48:49;;;;;;;2.92;0.68;;;;;;;4.02;100.00;102731.16;4889681;29;20386;-78
2022/03/04 09:51:14;;;;;;;6.57;0.70;;;;;;;3.97;100.00;102725.28;4886036;29;20032;-78
2022/03/04 09:53:40;;;;;;;4.60;0.60;;;;;;;3.91;100.00;102725.75;4889635;29;20047;-78
2022/03/04 09:56:05;;;;;;;2.72;0.70;;;;;;;4.06;100.00;102710.47;4884652;29;20043;-79
2022/03/04 09:58:31;;;;;;;3.35;0.60;;;;;;;4.09;100.00;102713.78;4888420;29;20068;-78
2022/03/04 10:00:56;;;;;;;1.88;0.70;;;;;;;4.06;100.00;102700.69;4893451;29;20048;-78
2022/03/04 10:03:42;;;;;;;3.95;0.75;;;;;;;4.12;100.00;102700.25;4905726;29;20123;-78
2022/03/04 10:06:07;;;;;;;4.03;0.38;;;;;;;4.22;100.00;102698.59;4900633;29;20028;-79
2022/03/04 10:08:44;;;;;;;4.95;0.70;;;;;;;4.42;100.00;102714.97;4896426;29;20116;-78
2022/03/04 10:11:11;;;;;;;4.00;0.60;;;;;;;4.31;100.00;102710.44;4891143;29;20037;-78
2022/03/04 10:13:50;;;;;;;2.30;0.40;;;;;;;4.45;99.08;102717.41;4896668;29;20028;-78
2022/03/04 10:16:31;;;;;;;3.05;0.55;;;;;;;4.13;97.96;102658.47;4893778;29;20388;-78
2022/03/04 10:19:16;;;;;;;2.10;0.60;;;;;;;4.59;98.46;102711.91;4892825;29;20069;-78
2022/03/04 10:21:53;;;;;;;2.65;0.50;;;;;;;4.66;96.74;102705.16;4888616;29;20040;-78
2022/03/04 10:24:21;;;;;;;3.78;0.40;;;;;;;4.51;96.01;102692.13;4883242;29;20051;-78
2022/03/04 10:26:58;;;;;;;3.28;0.55;;;;;;;4.48;91.22;102696.72;4889232;29;20112;-79
2022/03/04 10:29:27;;;;;;;3.17;0.50;;;;;;;4.49;94.85;102702.88;4893186;29;20020;-79
2022/03/04 10:32:15;;;;;;;2.05;0.40;;;;;;;4.47;89.56;102700.34;4895457;29;20037;-79
2022/03/04 10:34:57;;;;;;;3.67;0.57;;;;;;;4.52;90.82;102702.66;4896319;29;20058;-79
2022/03/04 10:37:44;;;;;;;16.75;1.02;;;;;;;4.66;89.94;102701.63;4896012;29;20044;-79
2022/03/04 10:40:19;;;;;;;2.60;0.60;;;;;;;4.76;93.35;102699.16;4901837;29;20040;-79
2022/03/04 10:42:47;;;;;;;2.95;0.60;;;;;;;5.01;94.16;102695.50;4918244;29;20371;-80
2022/03/04 10:45:19;;;;;;;4.00;0.52;;;;;;;5.00;93.41;102696.44;4893328;29;20072;-79
2022/03/04 10:47:51;;;;;;;2.78;0.60;;;;;;;5.11;94.17;102700.00;4882480;29;20507;-79
2022/03/04 10:50:20;;;;;;;4.47;0.52;;;;;;;5.19;66.10;102700.25;4890286;29;20020;-82
2022/03/04 10:53:29;;;;;;;4.00;0.70;;;;;;;5.25;64.11;102704.28;4900293;29;20071;-81
2022/03/04 10:55:58;;;;;;;3.17;0.65;;;;;;;4.98;64.13;102693.06;4898328;29;20040;-79
2022/03/04 10:58:38;;;;;;;4.75;0.57;;;;;;;4.92;62.48;102703.22;4896123;29;20064;-78
2022/03/04 11:01:09;;;;;;;6.05;0.60;;;;;;;5.06;64.60;102691.50;4896156;29;20029;-79
2022/03/04 11:03:37;;;;;;;3.35;0.60;;;;;;;5.15;63.88;102697.94;4893353;29;20032;-80
2022/03/04 11:06:05;;;;;;;1.90;0.63;;;;;;;5.24;63.88;102701.75;4896116;29;20033;-79
2022/03/04 11:08:31;;;;;;;4.90;0.75;;;;;;;5.25;63.83;102690.94;4893056;29;20088;-80
2022/03/04 11:10:57;;;;;;;5.47;0.50;;;;;;;5.28;63.59;102679.19;4895817;29;20423;-80
2022/03/04 11:13:24;;;;;;;1.65;0.55;;;;;;;5.39;63.51;102687.19;4892321;29;20080;-79
2022/03/04 11:15:52;;;;;;;3.22;0.50;;;;;;;5.41;63.63;102691.47;4885459;29;20029;-81
2022/03/04 11:18:19;;;;;;;2.25;0.50;;;;;;;5.39;61.03;102688.03;4895539;29;20048;-80
2022/03/04 11:20:50;;;;;;;3.47;0.50;;;;;;;5.44;61.92;102689.53;4892349;29;20021;-80